Palo, Minnesota
Current Conditions -  °F | °C
As of 1:51 AM on Saturday 25 Oct 2014 (Local Time) from KEVM Reporting Station
Clear Clear  
Wind Chill: 52°   Ceiling: Unl
Heat Index: 52°   Visibility: 10mi
Dew Point: 32°   Wind: 8mph
Humidity: 47%   Direction: 280°W
Pressure: 29.8"   Gusts: NA
Location:  47.4622°N, 92.1946°W
Report Text: KEVM 250651Z AUTO 28007KT 10SM CLR 11/00 A2980 RMK AO2
Loading
Personal Weather Stations






























Interactive Weather Map
Tropical Storm Tracking
New forecast layout! Learn more

10-Day Weather Forecast

Advertisements
Track Severe Weather on mobile